Time;durP1;ratioP1;P1;durP2;ratioP2;P2;SDS_P1;SDS_P2;PMS_P1;PMS_P2;Temp;Humidity;BMP_temperature;BMP_pressure;BME280_temperature;BME280_humidity;BME280_pressure;Samples;Min_cycle;Max_cycle;Signal;HPM_P1;HPM_P2
2024/01/23 00:01:48;;;;;;;4.00;0.90;;;19.20;50.90;;;;;;4993092;28;20035;-50
2024/01/23 00:04:14;;;;;;;2.70;0.60;;;19.10;50.80;;;;;;4988456;28;20030;-49
2024/01/23 00:06:40;;;;;;;1.00;0.60;;;19.20;50.90;;;;;;4993517;28;20546;-48
2024/01/23 00:09:05;;;;;;;2.65;0.88;;;19.20;50.90;;;;;;4987056;28;20161;-47
2024/01/23 00:11:31;;;;;;;1.67;0.60;;;19.10;50.80;;;;;;4990626;28;20103;-53
2024/01/23 00:13:56;;;;;;;1.25;0.57;;;19.20;50.80;;;;;;5000152;28;20360;-50
2024/01/23 00:16:22;;;;;;;1.27;0.50;;;19.20;50.80;;;;;;4991001;28;20058;-49
2024/01/23 00:18:47;;;;;;;1.85;0.55;;;19.20;50.80;;;;;;4992787;28;20062;-47
2024/01/23 00:21:13;;;;;;;4.22;1.80;;;19.20;50.80;;;;;;4994977;28;20415;-54
2024/01/23 00:23:38;;;;;;;1.20;0.50;;;19.20;50.80;;;;;;4978810;28;20018;-49
2024/01/23 00:26:04;;;;;;;1.20;0.63;;;19.20;50.80;;;;;;4991607;28;20507;-48
2024/01/23 00:28:29;;;;;;;2.00;0.60;;;19.20;50.80;;;;;;4998063;28;20117;-49
2024/01/23 00:30:55;;;;;;;1.05;0.50;;;19.20;50.80;;;;;;4975735;28;20161;-50
2024/01/23 00:33:20;;;;;;;0.57;0.50;;;19.20;50.80;;;;;;4994563;28;20076;-49
2024/01/23 00:35:46;;;;;;;2.00;0.93;;;19.20;50.80;;;;;;4993410;28;20038;-51
2024/01/23 00:38:12;;;;;;;1.10;0.70;;;19.20;50.80;;;;;;4993908;28;20031;-49
2024/01/23 00:40:37;;;;;;;1.13;0.57;;;19.20;50.80;;;;;;4990887;28;20080;-51
2024/01/23 00:43:03;;;;;;;1.27;0.90;;;19.20;50.80;;;;;;4994450;28;20112;-47
2024/01/23 00:45:28;;;;;;;2.30;0.60;;;19.20;50.80;;;;;;4989765;28;20081;-52
2024/01/23 00:47:53;;;;;;;0.73;0.55;;;19.20;50.80;;;;;;4993292;28;20030;-47
2024/01/23 00:50:19;;;;;;;2.75;0.88;;;19.20;50.80;;;;;;4992653;28;20515;-48
2024/01/23 00:52:44;;;;;;;1.33;0.60;;;19.20;50.80;;;;;;4991190;28;20038;-50
2024/01/23 00:55:10;;;;;;;2.20;0.50;;;19.20;50.80;;;;;;4990747;28;20076;-48
2024/01/23 00:57:36;;;;;;;1.15;0.63;;;19.20;50.80;;;;;;4991256;28;20065;-47
2024/01/23 01:00:05;;;;;;;1.88;0.50;;;19.20;50.70;;;;;;4991566;28;20806;-48
2024/01/23 01:02:31;;;;;;;1.42;0.80;;;19.20;50.80;;;;;;4989533;28;20554;-51
2024/01/23 01:04:57;;;;;;;2.35;0.85;;;19.20;50.80;;;;;;4995625;28;20037;-49
2024/01/23 01:07:22;;;;;;;1.00;0.40;;;19.20;50.90;;;;;;4988546;28;20510;-49
2024/01/23 01:09:48;;;;;;;1.83;0.43;;;19.20;51.00;;;;;;4984609;28;20605;-47
2024/01/23 01:12:13;;;;;;;2.42;0.77;;;19.10;50.90;;;;;;4998177;28;20034;-48
2024/01/23 01:14:39;;;;;;;1.73;0.60;;;19.10;51.00;;;;;;4991766;28;20530;-49
2024/01/23 01:17:04;;;;;;;1.05;0.68;;;19.00;51.60;;;;;;4991684;28;20037;-49
2024/01/23 01:19:30;;;;;;;1.65;0.52;;;19.00;51.10;;;;;;4996243;28;20034;-49
2024/01/23 01:21:56;;;;;;;2.45;0.60;;;19.00;51.20;;;;;;4985250;28;20096;-50
2024/01/23 01:24:21;;;;;;;2.47;0.75;;;19.00;51.20;;;;;;4998986;28;20031;-49
2024/01/23 01:26:47;;;;;;;2.47;0.63;;;19.00;51.30;;;;;;4991867;28;20034;-50
2024/01/23 01:29:12;;;;;;;1.60;0.60;;;18.90;51.40;;;;;;4990329;28;20030;-49
2024/01/23 01:31:38;;;;;;;2.72;0.60;;;18.90;51.40;;;;;;4992892;28;20030;-48
2024/01/23 01:34:03;;;;;;;2.33;0.70;;;18.80;51.40;;;;;;4992743;28;20032;-51
2024/01/23 01:36:29;;;;;;;1.92;0.73;;;18.80;51.40;;;;;;4986943;28;20039;-50
2024/01/23 01:39:00;;;;;;;4.05;1.52;;;18.80;51.50;;;;;;4996978;28;20040;-48
2024/01/23 01:41:25;;;;;;;1.98;0.63;;;18.80;51.60;;;;;;4988960;28;20034;-51
2024/01/23 01:43:51;;;;;;;0.90;0.50;;;18.80;51.60;;;;;;4992272;28;20034;-48
2024/01/23 01:46:24;;;;;;;1.75;0.55;;;18.80;51.70;;;;;;4982593;28;20102;-49
2024/01/23 01:48:51;;;;;;;1.42;0.57;;;18.80;51.60;;;;;;4990803;28;20487;-53
2024/01/23 01:51:20;;;;;;;1.88;0.70;;;18.80;51.50;;;;;;4989273;28;20033;-52
2024/01/23 01:53:46;;;;;;;1.63;0.70;;;18.80;51.50;;;;;;4973968;28;20459;-51
2024/01/23 01:56:12;;;;;;;1.65;0.50;;;18.80;51.40;;;;;;4995732;28;20512;-54
2024/01/23 01:58:41;;;;;;;1.48;0.60;;;18.90;51.40;;;;;;4990601;28;20033;-51
2024/01/23 02:01:07;;;;;;;1.92;0.82;;;18.90;51.30;;;;;;4986005;28;20258;-51
2024/01/23 02:03:32;;;;;;;2.47;0.60;;;18.90;51.20;;;;;;4983820;28;20117;-49
2024/01/23 02:06:00;;;;;;;1.17;0.70;;;19.00;51.10;;;;;;4995912;28;20030;-52
2024/01/23 02:08:27;;;;;;;1.60;0.70;;;19.00;51.10;;;;;;4994337;28;20026;-49
2024/01/23 02:10:54;;;;;;;1.30;0.77;;;19.00;50.90;;;;;;4989809;28;20505;-49
2024/01/23 02:13:20;;;;;;;3.08;0.88;;;19.10;50.90;;;;;;4992096;28;20030;-46
2024/01/23 02:15:45;;;;;;;1.42;0.60;;;19.10;50.80;;;;;;4991173;28;20542;-48
2024/01/23 02:18:11;;;;;;;2.17;0.70;;;19.10;50.80;;;;;;4988492;28;20031;-51
2024/01/23 02:20:36;;;;;;;0.95;0.60;;;19.20;50.80;;;;;;4992748;28;20043;-51
2024/01/23 02:23:02;;;;;;;1.63;0.55;;;19.20;50.70;;;;;;4994642;28;20182;-48
2024/01/23 02:25:28;;;;;;;1.48;0.60;;;19.20;50.60;;;;;;4994429;28;20061;-49
2024/01/23 02:27:54;;;;;;;2.42;0.50;;;19.20;50.60;;;;;;4994718;28;20515;-51
2024/01/23 02:30:19;;;;;;;3.08;0.68;;;19.20;50.50;;;;;;4997411;28;20037;-50
2024/01/23 02:32:45;;;;;;;2.13;0.63;;;19.30;50.50;;;;;;4995316;28;20038;-51
2024/01/23 02:35:12;;;;;;;1.88;0.30;;;19.30;50.50;;;;;;4999193;28;20041;-49
2024/01/23 02:37:38;;;;;;;1.75;0.80;;;19.30;50.40;;;;;;4989602;28;20524;-48
2024/01/23 02:40:05;;;;;;;2.38;0.77;;;19.30;50.40;;;;;;4993360;28;20172;-49
2024/01/23 02:42:31;;;;;;;5.65;0.70;;;19.30;50.40;;;;;;4982348;28;20129;-51
2024/01/23 02:44:57;;;;;;;1.77;0.60;;;19.30;50.40;;;;;;4992011;28;20137;-51
2024/01/23 02:47:22;;;;;;;1.85;0.55;;;19.40;50.40;;;;;;4990569;28;20030;-49
2024/01/23 02:49:48;;;;;;;2.47;0.70;;;19.30;50.30;;;;;;4993979;28;20073;-51
2024/01/23 02:52:14;;;;;;;2.03;0.68;;;19.40;50.40;;;;;;4991265;28;20069;-51
2024/01/23 02:54:39;;;;;;;2.15;0.60;;;19.40;50.40;;;;;;4990456;28;20092;-51
2024/01/23 02:57:05;;;;;;;1.35;0.70;;;19.40;50.40;;;;;;4994065;28;20030;-49
2024/01/23 02:59:30;;;;;;;2.03;0.80;;;19.30;50.30;;;;;;4990976;28;20074;-51
2024/01/23 03:01:56;;;;;;;1.42;0.50;;;19.30;50.30;;;;;;4985908;28;20465;-51
2024/01/23 03:04:21;;;;;;;2.58;0.80;;;19.30;50.40;;;;;;4982590;28;20049;-50
2024/01/23 03:06:47;;;;;;;2.42;0.88;;;19.30;50.40;;;;;;4988117;28;20037;-47
2024/01/23 03:09:13;;;;;;;1.38;0.60;;;19.30;50.40;;;;;;4987129;28;20195;-48
2024/01/23 03:11:40;;;;;;;1.63;0.70;;;19.30;50.30;;;;;;4994099;28;20395;-48
2024/01/23 03:14:05;;;;;;;0.82;0.45;;;19.30;50.40;;;;;;4994921;28;20510;-53
2024/01/23 03:16:31;;;;;;;1.95;0.80;;;19.30;50.40;;;;;;4992577;28;20031;-56
2024/01/23 03:18:56;;;;;;;1.88;0.50;;;19.30;50.50;;;;;;4993246;28;20038;-55
2024/01/23 03:21:22;;;;;;;1.35;0.60;;;19.30;50.40;;;;;;4998988;28;20516;-49
2024/01/23 03:23:48;;;;;;;2.60;0.70;;;19.30;50.50;;;;;;4973525;28;20048;-49
2024/01/23 03:26:13;;;;;;;1.77;0.68;;;19.20;50.40;;;;;;4998404;28;20033;-56
2024/01/23 03:28:39;;;;;;;2.80;0.70;;;19.20;50.50;;;;;;4989775;28;20026;-56
2024/01/23 03:31:04;;;;;;;2.47;0.50;;;19.20;50.50;;;;;;5002885;28;20136;-52
2024/01/23 03:33:30;;;;;;;1.20;0.47;;;19.20;50.50;;;;;;4992598;28;20031;-49
2024/01/23 03:35:56;;;;;;;2.10;0.60;;;19.20;50.60;;;;;;4999933;28;20034;-50
2024/01/23 03:38:21;;;;;;;1.30;0.57;;;19.20;50.60;;;;;;4987101;28;20029;-54
2024/01/23 03:40:47;;;;;;;2.33;0.63;;;19.20;50.60;;;;;;4992371;28;20475;-52
2024/01/23 03:43:12;;;;;;;1.50;0.55;;;19.10;50.60;;;;;;4998315;28;20116;-50
2024/01/23 03:45:38;;;;;;;1.13;0.70;;;19.20;50.70;;;;;;4997518;28;20165;-53
2024/01/23 03:48:04;;;;;;;1.70;0.50;;;19.20;50.70;;;;;;4996038;28;20103;-55
2024/01/23 03:50:30;;;;;;;2.22;0.68;;;19.10;50.70;;;;;;4998318;28;20049;-46
2024/01/23 03:52:55;;;;;;;1.95;0.88;;;19.10;50.70;;;;;;4997764;28;20472;-54
2024/01/23 03:55:21;;;;;;;2.38;0.70;;;19.10;50.70;;;;;;4993666;28;20084;-50
2024/01/23 03:57:47;;;;;;;1.80;0.50;;;19.10;50.70;;;;;;4999894;28;20400;-49
2024/01/23 04:00:14;;;;;;;1.58;0.57;;;19.10;50.70;;;;;;4988902;28;20087;-48
2024/01/23 04:02:40;;;;;;;1.20;0.40;;;19.10;50.70;;;;;;4992267;28;20034;-49
2024/01/23 04:05:07;;;;;;;2.75;1.05;;;19.10;50.70;;;;;;4992348;28;20034;-49
2024/01/23 04:07:33;;;;;;;1.42;0.60;;;19.10;50.70;;;;;;4992021;28;20132;-46
2024/01/23 04:09:59;;;;;;;1.33;0.43;;;19.10;50.70;;;;;;4988655;28;20030;-49
2024/01/23 04:12:25;;;;;;;1.35;0.50;;;19.10;50.60;;;;;;4993344;28;20025;-49
2024/01/23 04:14:50;;;;;;;2.60;0.65;;;19.10;50.60;;;;;;4973912;28;20100;-50
2024/01/23 04:17:17;;;;;;;3.15;0.90;;;19.10;50.60;;;;;;5003606;28;20392;-48
2024/01/23 04:19:42;;;;;;;2.50;0.70;;;19.10;50.60;;;;;;4999544;28;20037;-50
2024/01/23 04:22:08;;;;;;;1.58;0.57;;;19.10;50.60;;;;;;5004491;28;20034;-50
2024/01/23 04:24:40;;;;;;;0.88;0.60;;;19.00;50.60;;;;;;4998262;28;20825;-49
2024/01/23 04:27:06;;;;;;;1.70;0.68;;;19.10;50.60;;;;;;4994923;28;20563;-49
2024/01/23 04:29:32;;;;;;;3.35;0.95;;;19.10;50.60;;;;;;4992220;28;20032;-49
2024/01/23 04:31:58;;;;;;;1.58;0.70;;;19.10;50.60;;;;;;4994984;28;20064;-50
2024/01/23 04:34:23;;;;;;;1.23;0.47;;;19.10;50.60;;;;;;4981381;28;20533;-51
2024/01/23 04:36:49;;;;;;;1.15;0.50;;;19.10;50.60;;;;;;4997245;28;20052;-48
2024/01/23 04:39:15;;;;;;;1.23;0.50;;;19.10;50.60;;;;;;4980240;28;20565;-48
2024/01/23 04:41:41;;;;;;;1.52;0.50;;;19.10;50.60;;;;;;4998423;28;20034;-53
2024/01/23 04:44:07;;;;;;;1.33;0.60;;;19.10;50.60;;;;;;4997313;28;20037;-49
2024/01/23 04:46:32;;;;;;;1.20;0.70;;;19.10;50.60;;;;;;5000394;28;20044;-50
2024/01/23 04:48:58;;;;;;;1.98;0.50;;;19.10;50.60;;;;;;4997353;28;20120;-50
2024/01/23 04:51:23;;;;;;;1.35;0.52;;;19.10;50.60;;;;;;4996510;28;20113;-51
2024/01/23 04:53:52;;;;;;;1.45;0.47;;;19.00;50.60;;;;;;5000664;28;20030;-51
2024/01/23 04:56:18;;;;;;;1.00;0.57;;;19.10;50.60;;;;;;4996311;28;20479;-48
2024/01/23 04:58:43;;;;;;;1.05;0.45;;;19.00;50.50;;;;;;4993348;28;20049;-50
2024/01/23 05:01:09;;;;;;;2.13;0.68;;;19.10;50.60;;;;;;5000039;28;20026;-50
2024/01/23 05:03:34;;;;;;;1.90;0.65;;;19.10;50.60;;;;;;4993595;28;20499;-51
2024/01/23 05:06:00;;;;;;;2.05;0.60;;;19.10;50.60;;;;;;4993649;28;20076;-50
2024/01/23 05:08:25;;;;;;;0.93;0.50;;;19.10;50.50;;;;;;4999882;28;20037;-49
2024/01/23 05:10:51;;;;;;;1.00;0.50;;;19.10;50.50;;;;;;4995938;28;20064;-50
2024/01/23 05:13:16;;;;;;;0.70;0.45;;;19.10;50.50;;;;;;4996616;28;20030;-51
2024/01/23 05:15:42;;;;;;;1.92;0.75;;;19.10;50.50;;;;;;4997787;28;20030;-47
2024/01/23 05:18:07;;;;;;;1.65;0.40;;;19.10;50.50;;;;;;4993868;28;20034;-49
2024/01/23 05:20:34;;;;;;;1.65;0.70;;;19.10;50.50;;;;;;4992949;28;20482;-49
2024/01/23 05:23:01;;;;;;;1.45;0.43;;;19.10;50.40;;;;;;4999608;28;20033;-47
2024/01/23 05:25:26;;;;;;;1.73;0.80;;;19.10;50.40;;;;;;4994059;28;20034;-52
2024/01/23 05:27:52;;;;;;;1.02;0.30;;;19.10;50.40;;;;;;4998153;28;20301;-50
2024/01/23 05:30:18;;;;;;;1.10;0.60;;;19.10;50.40;;;;;;4996578;28;20065;-53
2024/01/23 05:32:44;;;;;;;1.35;0.60;;;19.10;50.40;;;;;;4998965;28;20768;-60
2024/01/23 05:35:09;;;;;;;1.35;0.50;;;19.10;50.50;;;;;;5002699;28;20057;-51
2024/01/23 05:37:35;;;;;;;2.20;0.65;;;19.10;50.40;;;;;;4998552;28;20062;-49
2024/01/23 05:40:02;;;;;;;2.42;0.50;;;19.10;50.40;;;;;;4993149;28;20042;-48
2024/01/23 05:42:28;;;;;;;2.28;0.57;;;19.10;50.40;;;;;;5000319;28;20034;-48
2024/01/23 05:44:54;;;;;;;1.23;0.60;;;19.10;50.50;;;;;;4995522;28;20033;-49
2024/01/23 05:47:19;;;;;;;0.80;0.35;;;19.10;50.40;;;;;;4994389;28;20533;-52
2024/01/23 05:49:45;;;;;;;1.25;0.70;;;19.10;50.40;;;;;;4981832;28;20326;-49
2024/01/23 05:52:10;;;;;;;1.15;0.50;;;19.10;50.40;;;;;;4994899;28;20034;-50
2024/01/23 05:54:38;;;;;;;1.05;0.32;;;19.10;50.40;;;;;;4973324;28;20049;-51
2024/01/23 05:57:03;;;;;;;0.50;0.40;;;19.10;50.40;;;;;;4998330;28;20050;-50
2024/01/23 05:59:29;;;;;;;1.23;0.47;;;19.10;50.40;;;;;;4993451;28;20097;-49
2024/01/23 06:01:55;;;;;;;1.17;0.55;;;19.10;50.40;;;;;;4995505;28;20083;-48
2024/01/23 06:04:20;;;;;;;0.93;0.45;;;19.10;50.40;;;;;;4999579;28;20450;-47
2024/01/23 06:06:46;;;;;;;2.63;0.70;;;19.10;50.40;;;;;;4990097;28;20051;-48
2024/01/23 06:09:11;;;;;;;1.00;0.40;;;19.10;50.40;;;;;;4999031;28;20425;-49
2024/01/23 06:11:39;;;;;;;2.35;0.68;;;19.10;50.40;;;;;;4999745;28;20252;-50
2024/01/23 06:14:05;;;;;;;1.88;0.55;;;19.00;50.40;;;;;;4994857;28;20117;-48
2024/01/23 06:16:30;;;;;;;1.67;0.60;;;19.00;50.60;;;;;;5000249;28;20165;-49
2024/01/23 06:18:56;;;;;;;1.30;0.65;;;19.00;50.70;;;;;;4999074;28;20049;-47
2024/01/23 06:21:22;;;;;;;0.77;0.40;;;18.90;50.70;;;;;;4992731;28;20128;-51
2024/01/23 06:23:47;;;;;;;1.60;0.70;;;18.90;50.70;;;;;;5000838;28;20122;-49
2024/01/23 06:26:13;;;;;;;2.60;0.50;;;18.90;50.60;;;;;;4998934;28;20030;-49
2024/01/23 06:28:38;;;;;;;0.73;0.50;;;18.90;50.70;;;;;;4992227;28;20706;-48
2024/01/23 06:31:04;;;;;;;0.52;0.30;;;19.00;50.80;;;;;;5000471;28;20048;-51
2024/01/23 06:33:31;;;;;;;0.93;0.38;;;18.90;50.70;;;;;;4998050;28;20129;-49
2024/01/23 06:35:56;;;;;;;1.70;0.40;;;18.90;50.80;;;;;;4978918;28;20519;-51
2024/01/23 06:38:22;;;;;;;0.93;0.47;;;18.90;50.80;;;;;;5003965;28;20073;-49
2024/01/23 06:40:48;;;;;;;1.75;0.52;;;18.90;50.70;;;;;;5001364;28;20062;-50
2024/01/23 06:43:13;;;;;;;2.13;0.60;;;18.90;50.70;;;;;;4997955;28;20028;-47
2024/01/23 06:45:39;;;;;;;1.55;0.55;;;18.90;50.60;;;;;;5002735;28;20038;-49
2024/01/23 06:48:04;;;;;;;1.98;0.60;;;18.90;50.60;;;;;;4998576;28;20042;-47
2024/01/23 06:50:30;;;;;;;3.13;0.90;;;18.90;50.60;;;;;;4998259;28;20026;-47
2024/01/23 06:52:55;;;;;;;1.60;0.50;;;19.00;50.50;;;;;;5002898;28;20057;-49
2024/01/23 06:55:21;;;;;;;1.70;0.63;;;19.00;50.50;;;;;;4998340;28;20030;-48
2024/01/23 06:57:47;;;;;;;2.65;0.63;;;19.00;50.50;;;;;;4999146;28;20049;-51
2024/01/23 07:00:13;;;;;;;3.03;0.80;;;19.00;50.50;;;;;;5003793;28;20034;-48
2024/01/23 07:02:38;;;;;;;3.15;0.90;;;19.00;50.60;;;;;;4996775;28;20113;-50
2024/01/23 07:05:04;;;;;;;2.22;1.02;;;18.90;50.50;;;;;;5006201;28;20568;-57
2024/01/23 07:07:30;;;;;;;4.18;0.80;;;18.90;50.50;;;;;;5000872;28;20056;-54
2024/01/23 07:09:55;;;;;;;3.80;1.10;;;18.90;50.50;;;;;;4998513;28;20077;-53
2024/01/23 07:12:21;;;;;;;2.35;0.93;;;19.00;50.60;;;;;;5002215;28;20045;-47
2024/01/23 07:14:46;;;;;;;2.58;1.10;;;19.00;50.50;;;;;;4998241;28;20042;-50
2024/01/23 07:17:12;;;;;;;1.92;0.90;;;19.00;50.50;;;;;;4998159;28;20035;-52
2024/01/23 07:19:37;;;;;;;3.22;1.50;;;19.00;50.50;;;;;;5001209;28;20042;-49
2024/01/23 07:22:03;;;;;;;2.33;1.10;;;19.00;50.50;;;;;;5000584;28;20034;-52
2024/01/23 07:24:28;;;;;;;2.30;1.20;;;19.00;50.40;;;;;;4996208;28;20033;-50
2024/01/23 07:26:54;;;;;;;3.15;1.48;;;19.00;50.40;;;;;;5001535;28;20488;-52
2024/01/23 07:29:19;;;;;;;3.22;1.15;;;19.10;50.40;;;;;;4999948;28;20117;-47
2024/01/23 07:31:45;;;;;;;2.80;1.20;;;19.10;50.20;;;;;;4998986;28;20042;-51
2024/01/23 07:34:10;;;;;;;2.25;1.08;;;19.20;50.20;;;;;;5001885;28;20049;-53
2024/01/23 07:36:36;;;;;;;1.95;1.17;;;19.20;50.10;;;;;;5005093;28;20506;-47
2024/01/23 07:39:02;;;;;;;2.58;1.30;;;19.20;50.00;;;;;;4998107;28;20035;-48
2024/01/23 07:41:28;;;;;;;3.70;1.42;;;19.20;50.00;;;;;;5003781;28;20038;-49
2024/01/23 07:43:53;;;;;;;4.97;1.30;;;19.30;50.10;;;;;;4997541;28;20065;-51
2024/01/23 07:46:20;;;;;;;3.10;1.20;;;19.20;50.00;;;;;;5001000;28;20025;-52
2024/01/23 07:48:46;;;;;;;5.32;2.00;;;19.20;50.10;;;;;;5001217;28;20034;-50
2024/01/23 07:51:11;;;;;;;3.50;1.23;;;19.20;50.20;;;;;;5000542;28;20028;-52
2024/01/23 07:53:36;;;;;;;4.82;1.55;;;19.20;50.30;;;;;;5000066;28;20036;-47
2024/01/23 07:56:03;;;;;;;2.58;1.25;;;19.10;50.30;;;;;;4999682;28;20148;-48
2024/01/23 07:58:28;;;;;;;5.03;1.10;;;19.10;50.40;;;;;;4980746;28;20168;-50
2024/01/23 08:00:54;;;;;;;6.03;1.80;;;19.10;50.80;;;;;;4999051;28;20463;-47
2024/01/23 08:03:19;;;;;;;6.55;1.80;;;19.20;51.40;;;;;;4992319;28;20575;-51
2024/01/23 08:05:45;;;;;;;12.05;2.30;;;19.20;51.70;;;;;;4993725;28;20053;-57
2024/01/23 08:08:11;;;;;;;5.28;1.92;;;19.20;51.60;;;;;;4963199;28;20290;-53
2024/01/23 08:10:37;;;;;;;8.77;2.75;;;19.20;51.70;;;;;;4993081;28;20136;-52
2024/01/23 08:13:03;;;;;;;11.15;2.60;;;19.20;51.70;;;;;;4991227;28;20566;-52
2024/01/23 08:15:29;;;;;;;8.43;2.20;;;19.10;51.80;;;;;;4995024;28;20043;-53
2024/01/23 08:17:55;;;;;;;11.73;2.60;;;19.10;52.00;;;;;;4981580;28;20129;-54
2024/01/23 08:20:21;;;;;;;7.18;2.35;;;19.10;52.10;;;;;;4988225;28;20118;-48
2024/01/23 08:22:47;;;;;;;5.72;2.30;;;19.10;52.10;;;;;;4992650;28;20042;-57
2024/01/23 08:25:13;;;;;;;7.15;2.85;;;19.10;52.00;;;;;;4994369;28;20034;-49
2024/01/23 08:27:38;;;;;;;4.88;2.60;;;19.10;51.90;;;;;;4992045;28;20045;-56
2024/01/23 08:30:04;;;;;;;6.15;2.33;;;19.10;51.90;;;;;;4994750;28;20539;-54
2024/01/23 08:32:30;;;;;;;5.45;1.77;;;19.00;51.80;;;;;;4991520;28;20475;-53
2024/01/23 08:34:55;;;;;;;7.68;2.00;;;19.10;52.00;;;;;;4990354;28;20050;-47
2024/01/23 08:37:21;;;;;;;4.25;1.75;;;19.00;52.00;;;;;;4968706;28;20431;-48
2024/01/23 08:39:47;;;;;;;7.63;2.20;;;19.00;52.00;;;;;;4989301;28;20689;-53
2024/01/23 08:42:12;;;;;;;5.05;2.08;;;19.00;52.00;;;;;;4994326;28;20034;-54
2024/01/23 08:44:40;;;;;;;7.50;1.90;;;19.00;52.00;;;;;;4991009;28;20635;-49
2024/01/23 08:47:05;;;;;;;5.45;1.75;;;19.00;52.00;;;;;;4992711;28;20038;-48
2024/01/23 08:49:31;;;;;;;5.72;2.00;;;19.00;52.00;;;;;;4992157;28;20718;-48
2024/01/23 08:51:56;;;;;;;4.00;1.63;;;19.00;52.00;;;;;;4998660;28;20057;-53
2024/01/23 08:54:22;;;;;;;3.67;1.70;;;19.00;52.10;;;;;;4994107;28;20080;-49
2024/01/23 08:56:48;;;;;;;4.28;1.90;;;19.00;52.20;;;;;;4989922;28;20034;-50
2024/01/23 08:59:14;;;;;;;5.55;1.55;;;19.00;52.10;;;;;;4991107;28;20053;-52
2024/01/23 09:01:40;;;;;;;6.43;1.90;;;19.00;52.20;;;;;;4991422;28;20065;-52
2024/01/23 09:04:06;;;;;;;6.85;1.65;;;19.00;52.20;;;;;;4989554;28;20062;-52
2024/01/23 09:06:32;;;;;;;4.38;1.55;;;19.00;52.20;;;;;;4965239;28;20035;-51
2024/01/23 09:08:58;;;;;;;6.22;1.58;;;18.90;52.20;;;;;;4972520;28;20069;-50
2024/01/23 09:11:23;;;;;;;6.40;1.65;;;19.00;52.30;;;;;;4984670;28;20061;-52
2024/01/23 09:13:50;;;;;;;2.25;1.13;;;19.00;52.30;;;;;;4984285;28;20089;-50
2024/01/23 09:16:15;;;;;;;5.65;1.58;;;19.00;52.20;;;;;;4986000;28;20050;-52
2024/01/23 09:18:44;;;;;;;5.85;1.30;;;19.00;52.20;;;;;;4985528;28;20467;-50
2024/01/23 09:21:09;;;;;;;4.25;2.05;;;19.00;52.20;;;;;;4983116;28;20030;-51
2024/01/23 09:23:38;;;;;;;4.43;1.80;;;19.10;52.20;;;;;;4986206;28;20144;-51
2024/01/23 09:26:03;;;;;;;3.75;1.45;;;19.10;52.20;;;;;;4997601;28;20506;-53
2024/01/23 09:28:29;;;;;;;4.18;1.65;;;19.10;52.00;;;;;;4991302;28;20023;-50
2024/01/23 09:30:54;;;;;;;5.75;1.38;;;19.10;52.10;;;;;;4990744;28;20113;-49
2024/01/23 09:33:20;;;;;;;6.53;2.15;;;19.10;52.00;;;;;;4997425;28;20041;-49
2024/01/23 09:35:46;;;;;;;3.75;1.30;;;19.10;51.90;;;;;;4980921;28;20096;-51
2024/01/23 09:38:12;;;;;;;4.90;1.20;;;19.10;52.00;;;;;;4992473;28;20030;-52
2024/01/23 09:40:37;;;;;;;3.00;1.30;;;19.10;51.90;;;;;;4997460;28;20027;-52
2024/01/23 09:43:03;;;;;;;4.80;1.30;;;19.10;52.00;;;;;;4991371;28;20041;-47
2024/01/23 09:45:29;;;;;;;5.07;1.83;;;19.10;52.00;;;;;;4975719;28;20041;-48
2024/01/23 09:47:55;;;;;;;4.25;1.13;;;19.10;52.00;;;;;;4996338;28;20041;-49
2024/01/23 09:50:26;;;;;;;3.80;1.23;;;19.20;52.10;;;;;;4990927;28;20030;-49
2024/01/23 09:52:52;;;;;;;3.28;1.25;;;19.20;51.90;;;;;;4992541;28;20042;-52
2024/01/23 09:55:18;;;;;;;2.15;1.17;;;19.20;52.00;;;;;;4993332;28;20038;-51
2024/01/23 09:57:44;;;;;;;4.07;1.30;;;19.20;51.90;;;;;;4992515;28;20069;-50
2024/01/23 10:00:14;;;;;;;2.40;1.10;;;19.20;51.80;;;;;;4994045;28;20071;-50
2024/01/23 10:02:41;;;;;;;4.85;1.40;;;19.30;51.80;;;;;;4998565;28;20113;-53
2024/01/23 10:05:11;;;;;;;3.95;1.30;;;19.30;51.70;;;;;;4996342;28;20042;-48
2024/01/23 10:07:37;;;;;;;4.50;1.30;;;19.30;51.70;;;;;;4993206;28;20044;-50
2024/01/23 10:10:13;;;;;;;2.63;1.27;;;19.30;51.60;;;;;;4994410;28;20088;-50
2024/01/23 10:12:39;;;;;;;4.30;1.40;;;19.30;51.60;;;;;;4995432;28;20495;-51
2024/01/23 10:15:05;;;;;;;2.65;1.40;;;19.30;51.50;;;;;;4996893;28;20124;-50
2024/01/23 10:17:30;;;;;;;4.10;0.95;;;19.30;51.50;;;;;;4992729;28;20114;-50
2024/01/23 10:19:56;;;;;;;5.00;1.40;;;19.40;51.50;;;;;;5000717;23;20046;-50
2024/01/23 10:22:21;;;;;;;2.58;1.13;;;19.30;51.40;;;;;;4996625;28;20041;-51
2024/01/23 10:24:49;;;;;;;2.83;1.30;;;19.40;51.40;;;;;;4994473;28;20038;-48
2024/01/23 10:27:15;;;;;;;2.67;1.10;;;19.40;51.40;;;;;;4995072;28;20104;-48
2024/01/23 10:29:40;;;;;;;2.83;1.15;;;19.40;51.40;;;;;;4986264;28;20853;-52
2024/01/23 10:32:07;;;;;;;4.50;1.15;;;19.40;51.40;;;;;;4986817;28;20069;-50
2024/01/23 10:34:33;;;;;;;2.22;1.15;;;19.40;51.40;;;;;;4961364;28;20207;-50
2024/01/23 10:36:58;;;;;;;4.63;1.85;;;19.40;51.30;;;;;;4991422;28;20145;-52
2024/01/23 10:39:26;;;;;;;3.25;1.00;;;19.40;51.20;;;;;;4981350;28;20042;-50
2024/01/23 10:41:53;;;;;;;2.97;1.52;;;19.50;51.30;;;;;;4964125;28;20169;-50
2024/01/23 10:44:21;;;;;;;4.82;1.02;;;19.50;51.40;;;;;;4983326;28;20419;-47
2024/01/23 10:46:48;;;;;;;3.65;0.95;;;19.50;51.30;;;;;;4984229;28;20165;-50
2024/01/23 10:49:15;;;;;;;2.70;1.05;;;19.50;51.30;;;;;;4986352;28;20204;-53
2024/01/23 10:51:47;;;;;;;3.53;1.33;;;19.50;51.40;;;;;;4984132;28;20042;-52
2024/01/23 10:54:24;;;;;;;3.45;1.10;;;19.50;51.40;;;;;;4979468;28;20180;-50
2024/01/23 10:56:54;;;;;;;3.20;1.25;;;19.50;51.40;;;;;;4982401;28;20562;-53
2024/01/23 10:59:25;;;;;;;6.00;1.75;;;19.50;51.40;;;;;;4984417;28;20060;-53
2024/01/23 11:01:55;;;;;;;6.38;1.90;;;19.50;51.40;;;;;;4980267;28;20034;-56
2024/01/23 11:04:20;;;;;;;4.63;1.33;;;19.50;51.40;;;;;;4982670;28;20407;-55
2024/01/23 11:06:57;;;;;;;4.60;1.30;;;19.40;51.40;;;;;;4988320;28;20038;-50
2024/01/23 11:09:37;;;;;;;3.97;1.13;;;19.40;51.40;;;;;;4986378;28;20496;-57
2024/01/23 11:12:30;;;;;;;3.65;1.17;;;19.40;51.40;;;;;;4984355;28;20038;-56
2024/01/23 11:15:08;;;;;;;7.07;1.27;;;19.40;51.40;;;;;;4984127;28;20045;-57
2024/01/23 11:17:33;;;;;;;3.15;1.40;;;19.40;51.40;;;;;;4982720;28;20062;-50
2024/01/23 11:20:13;;;;;;;4.60;1.23;;;19.50;51.50;;;;;;4970812;28;20494;-49
2024/01/23 11:22:38;;;;;;;3.90;1.40;;;19.50;51.60;;;;;;4987893;28;20038;-54
2024/01/23 11:25:04;;;;;;;3.78;1.30;;;19.50;51.50;;;;;;4990327;28;20050;-52
2024/01/23 11:27:31;;;;;;;5.53;1.50;;;19.40;51.50;;;;;;4968115;28;20117;-51
2024/01/23 11:29:57;;;;;;;5.45;1.17;;;19.40;51.40;;;;;;4986487;28;20033;-46
2024/01/23 11:32:24;;;;;;;5.00;1.50;;;19.40;51.40;;;;;;4982613;28;20884;-50
2024/01/23 11:35:03;;;;;;;2.40;1.33;;;19.40;51.40;;;;;;4985159;28;20049;-52
2024/01/23 11:37:32;;;;;;;3.60;1.77;;;19.40;51.40;;;;;;4985732;28;20049;-53
2024/01/23 11:40:03;;;;;;;3.28;1.58;;;19.40;51.40;;;;;;4990126;28;20038;-53
2024/01/23 11:42:40;;;;;;;7.00;1.75;;;19.40;51.40;;;;;;4988062;28;20060;-57
2024/01/23 11:45:22;;;;;;;7.35;1.63;;;19.40;51.50;;;;;;4990904;28;20034;-56
2024/01/23 11:47:56;;;;;;;3.85;1.50;;;19.40;51.40;;;;;;4986715;28;20590;-51
2024/01/23 11:50:22;;;;;;;2.80;1.33;;;19.40;51.40;;;;;;4991289;28;20042;-50
2024/01/23 11:52:54;;;;;;;4.70;2.00;;;19.40;51.40;;;;;;4982658;28;20787;-51
2024/01/23 11:55:20;;;;;;;3.08;1.42;;;19.40;51.40;;;;;;4986069;28;20041;-55
2024/01/23 11:57:53;;;;;;;4.95;1.13;;;19.30;51.40;;;;;;4986776;28;20877;-52
2024/01/23 12:00:19;;;;;;;4.93;1.42;;;19.30;51.40;;;;;;4984950;28;20044;-53
2024/01/23 12:02:46;;;;;;;5.03;1.85;;;19.30;51.60;;;;;;4992818;28;20065;-53
2024/01/23 12:05:11;;;;;;;4.45;1.52;;;19.30;51.60;;;;;;4976299;28;20037;-50
2024/01/23 12:07:39;;;;;;;3.42;1.35;;;19.30;51.70;;;;;;4987241;28;20534;-57
2024/01/23 12:10:09;;;;;;;3.13;1.23;;;19.20;51.70;;;;;;4987838;28;20066;-59
2024/01/23 12:12:36;;;;;;;2.40;1.30;;;19.20;51.70;;;;;;4986795;28;20041;-50
2024/01/23 12:15:01;;;;;;;4.15;1.58;;;19.20;51.80;;;;;;4986999;28;20046;-47
2024/01/23 12:17:27;;;;;;;3.00;1.10;;;19.20;51.90;;;;;;4993724;28;20038;-58
2024/01/23 12:19:52;;;;;;;4.00;1.30;;;19.20;51.90;;;;;;4964183;28;20157;-57
2024/01/23 12:22:18;;;;;;;7.30;1.25;;;19.20;51.90;;;;;;4968363;28;20031;-51
2024/01/23 12:24:44;;;;;;;3.08;1.10;;;19.20;51.90;;;;;;4986429;28;20121;-52
2024/01/23 12:27:11;;;;;;;4.15;1.10;;;19.20;51.90;;;;;;4986341;28;20037;-49
2024/01/23 12:29:38;;;;;;;3.38;1.45;;;19.20;52.00;;;;;;4990821;28;20038;-55
2024/01/23 12:32:03;;;;;;;2.70;1.40;;;19.20;51.90;;;;;;4991086;28;20411;-54
2024/01/23 12:34:33;;;;;;;4.85;1.55;;;19.20;51.90;;;;;;4983302;28;20033;-58
2024/01/23 12:37:00;;;;;;;3.47;1.35;;;19.20;51.90;;;;;;4968568;28;20201;-58
2024/01/23 12:39:27;;;;;;;2.70;1.38;;;19.20;51.90;;;;;;4989132;28;20033;-53
2024/01/23 12:41:53;;;;;;;2.28;1.23;;;19.20;51.90;;;;;;4986171;28;20049;-59